DAB weather

Daytona Beach International Airport
Daytona Beach, Florida, United States

Public forecast

Using degrees Fahrenheit for public forecast. Weather courtesy of forecast.io.

Current aviation weather report (METAR) for Daytona Beach International Airport

Retrieved 2019/10/16 04:53 UTC (45 minutes ago):

KDAB 160453Z 19005KT 10SM OVC150 25/21 A2997 RMK AO2 SLP148 T02500211 403060222

Aviation forecast (TAF) for Daytona Beach International Airport

Retrieved 2019-10-16 00:27 UTC (5 hours ago):

TAF KDAB 152322Z 1600/1624 13003KT P6SM SCT200 FM161400 23010KT P6SM VCSH SCT030 BKN250 FM161700 26013KT P6SM VCTS BKN035CB BKN080 TEMPO 1618/1621 3SM TSRA BKN020CB OVC040